Time;durP1;ratioP1;P1;durP2;ratioP2;P2;SDS_P1;SDS_P2;PMS_P1;PMS_P2;Temp;Humidity;BMP_temperature;BMP_pressure;BME280_temperature;BME280_humidity;BME280_pressure;Samples;Min_cycle;Max_cycle;Signal;HPM_P1;HPM_P2
2021/10/09 00:02:13;;;;;;;7.70;3.15;;;12.70;99.90;;;;;;5055524;28;20091;-78
2021/10/09 00:04:39;;;;;;;12.55;3.42;;;12.50;99.90;;;;;;5055550;28;20457;-79
2021/10/09 00:07:05;;;;;;;7.85;3.38;;;12.70;99.90;;;;;;5055149;28;20100;-79
2021/10/09 00:09:31;;;;;;;8.15;3.47;;;12.50;99.90;;;;;;5055068;28;20021;-78
2021/10/09 00:11:56;;;;;;;8.02;3.40;;;12.60;99.90;;;;;;5055438;28;20053;-79
2021/10/09 00:14:23;;;;;;;7.53;3.60;;;12.70;99.90;;;;;;5053998;28;20378;-79
2021/10/09 00:16:48;;;;;;;;;;;12.60;99.90;;;;;;5055720;28;20029;-79
2021/10/09 00:19:15;;;;;;;7.60;3.60;;;12.70;99.90;;;;;;5054762;28;20422;-78
2021/10/09 00:21:44;;;;;;;10.35;3.85;;;12.70;99.90;;;;;;5055230;28;20523;-79
2021/10/09 00:24:12;;;;;;;11.77;4.00;;;12.40;99.90;;;;;;5053790;28;20116;-79
2021/10/09 00:26:38;;;;;;;9.45;3.40;;;12.50;99.90;;;;;;5055051;28;20075;-78
2021/10/09 00:29:04;;;;;;;10.43;3.40;;;12.50;99.90;;;;;;5054681;28;20444;-79
2021/10/09 00:31:29;;;;;;;6.50;3.20;;;12.50;99.90;;;;;;5054666;28;20045;-78
2021/10/09 00:33:55;;;;;;;9.73;3.13;;;12.60;99.90;;;;;;5055007;28;20504;-78
2021/10/09 00:36:21;;;;;;;8.95;3.33;;;12.50;99.90;;;;;;5053282;28;20123;-79
2021/10/09 00:38:46;;;;;;;7.38;2.80;;;12.60;99.90;;;;;;5053324;28;20033;-79
2021/10/09 00:41:12;;;;;;;6.32;2.40;;;12.70;99.90;;;;;;5035818;28;20045;-79
2021/10/09 00:43:38;;;;;;;5.75;2.53;;;12.80;99.90;;;;;;5054503;28;20029;-79
2021/10/09 00:46:04;;;;;;;6.55;2.30;;;12.80;99.90;;;;;;5054589;28;20034;-78
2021/10/09 00:48:33;;;;;;;;;;;12.60;99.90;;;;;;5053878;28;20477;-79
2021/10/09 00:50:59;;;;;;;7.93;2.35;;;12.50;99.90;;;;;;5054640;28;19905;-78
2021/10/09 00:53:26;;;;;;;4.32;2.20;;;12.70;99.90;;;;;;5054542;28;20051;-79
2021/10/09 00:55:55;;;;;;;5.50;2.30;;;12.80;99.90;;;;;;5054504;28;20021;-79
2021/10/09 00:58:22;;;;;;;4.57;2.13;;;12.60;99.90;;;;;;5054667;28;20120;-78
2021/10/09 01:00:49;;;;;;;5.78;2.30;;;12.30;99.90;;;;;;5054004;28;20108;-78
2021/10/09 01:03:15;;;;;;;7.43;2.55;;;12.30;99.90;;;;;;5053043;28;20025;-79
2021/10/09 01:05:41;;;;;;;5.32;2.17;;;12.10;99.90;;;;;;5052994;28;20049;-79
2021/10/09 01:08:07;;;;;;;6.53;2.47;;;12.40;99.90;;;;;;5052712;28;20017;-79
2021/10/09 01:10:33;;;;;;;4.97;2.50;;;12.10;99.90;;;;;;5053727;28;20025;-79
2021/10/09 01:13:03;;;;;;;5.75;2.35;;;12.00;99.90;;;;;;5053030;28;20095;-78
2021/10/09 01:15:32;;;;;;;8.02;2.35;;;12.00;99.90;;;;;;5052505;28;20078;-78
2021/10/09 01:18:09;;;;;;;8.05;2.35;;;12.00;99.90;;;;;;5054199;28;20025;-78
2021/10/09 01:20:47;;;;;;;6.38;2.40;;;12.20;99.90;;;;;;5053585;28;20112;-79
2021/10/09 01:23:12;;;;;;;7.30;3.30;;;12.10;99.90;;;;;;5053974;28;20032;-78
2021/10/09 01:25:38;;;;;;;8.88;3.55;;;12.30;99.90;;;;;;5053861;28;20025;-79
2021/10/09 01:28:04;;;;;;;7.40;3.55;;;12.30;99.90;;;;;;5053941;28;20044;-78
2021/10/09 01:30:30;;;;;;;8.43;4.10;;;12.30;99.90;;;;;;5053159;28;20041;-79
2021/10/09 01:32:56;;;;;;;9.73;4.55;;;12.30;99.90;;;;;;5053897;28;20033;-78
2021/10/09 01:35:22;;;;;;;7.95;3.67;;;12.10;99.90;;;;;;5052430;28;20393;-78
2021/10/09 01:37:47;;;;;;;8.45;3.90;;;11.70;99.90;;;;;;5053684;28;20474;-78
2021/10/09 01:40:13;;;;;;;8.63;3.55;;;11.80;99.90;;;;;;5034399;28;20494;-78
2021/10/09 01:42:39;;;;;;;7.13;3.22;;;11.60;99.90;;;;;;5052257;28;20135;-79
2021/10/09 01:45:07;;;;;;;8.25;3.00;;;11.70;99.90;;;;;;5052182;28;20485;-79
2021/10/09 01:47:32;;;;;;;7.75;3.38;;;11.80;99.90;;;;;;5052740;28;20029;-79
2021/10/09 01:49:58;;;;;;;6.90;3.10;;;11.70;99.90;;;;;;5051908;28;20024;-78
2021/10/09 01:52:24;;;;;;;8.35;3.58;;;11.70;99.90;;;;;;5053459;28;20381;-78
2021/10/09 01:54:50;;;;;;;8.98;3.95;;;11.80;99.90;;;;;;5053482;28;20049;-79
2021/10/09 01:57:15;;;;;;;11.00;4.20;;;11.80;99.90;;;;;;5053408;28;20040;-79
2021/10/09 01:59:41;;;;;;;9.05;3.40;;;11.70;99.90;;;;;;5052858;28;20021;-79
2021/10/09 02:02:07;;;;;;;6.25;3.20;;;11.40;99.90;;;;;;5053424;28;20061;-78
2021/10/09 02:04:33;;;;;;;7.78;3.47;;;11.40;99.90;;;;;;5051975;28;20021;-78
2021/10/09 02:06:59;;;;;;;9.45;3.58;;;11.40;99.90;;;;;;5053331;28;20117;-78
2021/10/09 02:09:25;;;;;;;9.82;4.38;;;11.70;99.90;;;;;;5051660;28;20445;-79
2021/10/09 02:11:52;;;;;;;8.80;3.80;;;11.80;99.90;;;;;;5053433;28;20029;-79
2021/10/09 02:14:32;;;;;;;8.55;3.47;;;12.00;99.90;;;;;;5051682;28;20017;-78
2021/10/09 02:27:48;;;;;;;8.07;3.30;;;11.80;99.90;;;;;;5052583;28;20114;-78
2021/10/09 02:30:14;;;;;;;7.40;2.92;;;11.50;99.90;;;;;;5052127;28;20497;-79
2021/10/09 02:32:39;;;;;;;8.48;3.30;;;11.40;99.90;;;;;;5053070;28;20029;-78
2021/10/09 02:35:06;;;;;;;14.38;4.45;;;11.70;99.90;;;;;;5052882;28;20014;-78
2021/10/09 02:37:32;;;;;;;13.18;3.67;;;11.80;99.90;;;;;;5052801;28;20063;-78
2021/10/09 02:39:57;;;;;;;17.65;4.05;;;11.80;99.90;;;;;;5052484;28;20049;-79
2021/10/09 02:42:23;;;;;;;7.85;3.95;;;11.90;99.90;;;;;;5033893;28;20128;-79
2021/10/09 02:44:49;;;;;;;10.95;3.72;;;11.90;99.90;;;;;;5052573;28;20021;-78
2021/10/09 02:47:14;;;;;;;9.50;3.80;;;11.70;99.90;;;;;;5052814;28;20025;-79
2021/10/09 02:49:40;;;;;;;9.43;3.67;;;11.80;99.90;;;;;;5051119;28;20489;-79
2021/10/09 02:52:06;;;;;;;8.02;3.67;;;11.50;99.90;;;;;;5052711;28;20029;-79
2021/10/09 02:54:32;;;;;;;9.07;4.18;;;11.30;99.90;;;;;;5052594;28;20033;-79
2021/10/09 02:56:57;;;;;;;8.73;3.30;;;11.30;99.90;;;;;;5052635;28;20514;-78
2021/10/09 02:59:23;;;;;;;7.90;3.35;;;11.50;99.90;;;;;;5054236;28;20060;-78
2021/10/09 03:01:49;;;;;;;8.57;3.60;;;11.60;99.90;;;;;;5056579;28;20100;-78
2021/10/09 03:04:15;;;;;;;8.00;2.97;;;11.70;99.90;;;;;;5055406;28;20167;-78
2021/10/09 03:06:41;;;;;;;8.82;3.08;;;11.40;99.90;;;;;;5056393;28;20104;-78
2021/10/09 03:09:06;;;;;;;8.02;3.00;;;11.50;99.90;;;;;;5056367;28;20500;-79
2021/10/09 03:11:32;;;;;;;6.63;2.70;;;11.60;99.90;;;;;;5055235;28;20028;-78
2021/10/09 03:13:58;;;;;;;17.35;3.35;;;11.50;99.90;;;;;;5055059;28;20035;-78
2021/10/09 03:16:24;;;;;;;8.23;2.92;;;11.40;99.90;;;;;;5056510;28;20060;-78
2021/10/09 03:18:50;;;;;;;6.55;2.75;;;11.20;99.90;;;;;;5056225;28;20127;-78
2021/10/09 03:21:16;;;;;;;;;;;10.90;99.90;;;;;;5056253;28;20506;-78
2021/10/09 03:23:42;;;;;;;7.00;2.75;;;10.70;99.90;;;;;;5056299;28;19931;-78
2021/10/09 03:26:08;;;;;;;7.68;2.90;;;10.40;99.90;;;;;;5056123;28;20056;-78
2021/10/09 03:28:33;;;;;;;9.30;3.38;;;10.20;99.90;;;;;;5054862;28;20033;-77
2021/10/09 03:30:59;;;;;;;7.28;3.20;;;10.10;99.90;;;;;;5055492;28;20095;-78
2021/10/09 03:33:25;;;;;;;8.20;3.60;;;10.00;99.90;;;;;;5056209;28;20440;-78
2021/10/09 03:35:51;;;;;;;8.32;2.72;;;10.20;99.90;;;;;;5056038;28;20040;-77
2021/10/09 03:38:16;;;;;;;7.50;3.17;;;10.50;99.90;;;;;;5054677;28;20037;-78
2021/10/09 03:40:46;;;;;;;11.68;3.72;;;10.90;99.90;;;;;;5054125;28;20025;-78
2021/10/09 03:43:18;;;;;;;8.48;3.42;;;10.90;99.90;;;;;;5054725;28;20044;-78
2021/10/09 03:53:06;;;;;;;7.50;3.28;;;11.10;99.90;;;;;;5055953;28;20453;-79
2021/10/09 03:55:32;;;;;;;8.15;3.63;;;10.90;99.90;;;;;;5054236;28;20029;-78
2021/10/09 03:57:58;;;;;;;9.02;3.88;;;11.00;99.90;;;;;;5055612;28;20092;-78
2021/10/09 04:00:24;;;;;;;8.20;3.13;;;10.90;99.90;;;;;;5053809;28;20028;-78
2021/10/09 04:02:50;;;;;;;10.68;3.42;;;10.90;99.90;;;;;;5055580;28;20029;-78
2021/10/09 04:05:16;;;;;;;6.57;3.08;;;11.10;99.90;;;;;;5055451;28;20021;-78
2021/10/09 04:07:43;;;;;;;9.40;2.90;;;11.20;99.90;;;;;;5053968;28;20060;-78
2021/10/09 04:10:09;;;;;;;6.50;2.72;;;11.20;99.90;;;;;;5054440;28;20509;-79
2021/10/09 04:12:35;;;;;;;13.70;3.78;;;11.00;99.90;;;;;;5055252;28;20456;-78
2021/10/09 04:15:01;;;;;;;;;;;10.70;99.90;;;;;;5055466;28;20374;-79
2021/10/09 04:17:26;;;;;;;8.25;3.70;;;10.50;99.90;;;;;;5053965;28;19905;-78
2021/10/09 04:19:52;;;;;;;9.55;4.05;;;10.30;99.90;;;;;;5054846;28;20028;-78
2021/10/09 04:22:18;;;;;;;9.23;4.50;;;10.20;99.90;;;;;;5055138;28;20025;-78
2021/10/09 04:24:44;;;;;;;11.43;3.80;;;10.40;99.90;;;;;;5055264;28;20033;-78
2021/10/09 04:27:10;;;;;;;9.52;4.40;;;10.40;99.90;;;;;;5054639;28;20486;-78
2021/10/09 04:29:36;;;;;;;7.90;3.88;;;10.30;99.90;;;;;;5053403;28;20120;-78
2021/10/09 04:32:02;;;;;;;9.73;4.45;;;10.20;99.90;;;;;;5054480;28;20041;-78
2021/10/09 04:34:28;;;;;;;9.43;3.75;;;10.00;99.90;;;;;;5054902;28;20029;-77
2021/10/09 04:36:57;;;;;;;9.23;3.80;;;9.90;99.90;;;;;;5054850;28;20395;-77
2021/10/09 04:39:24;;;;;;;9.18;3.70;;;9.90;99.90;;;;;;5053386;28;20087;-77
2021/10/09 04:41:49;;;;;;;9.45;3.53;;;10.20;99.90;;;;;;5035855;28;20048;-78
2021/10/09 04:44:15;;;;;;;10.02;4.10;;;10.20;99.90;;;;;;5054393;28;20029;-77
2021/10/09 04:46:41;;;;;;;11.52;4.13;;;10.10;99.90;;;;;;5054707;28;20548;-78
2021/10/09 04:49:08;;;;;;;20.40;5.15;;;10.10;99.90;;;;;;5054638;28;20048;-78
2021/10/09 04:51:35;;;;;;;12.93;4.35;;;10.00;99.90;;;;;;5054053;28;20127;-78
2021/10/09 04:54:00;;;;;;;11.18;3.97;;;10.20;99.90;;;;;;5054520;28;20020;-77
2021/10/09 04:56:26;;;;;;;11.93;3.85;;;10.20;99.90;;;;;;5054149;28;20405;-78
2021/10/09 04:58:52;;;;;;;10.02;4.90;;;10.20;99.90;;;;;;5054325;28;20033;-77
2021/10/09 05:01:17;;;;;;;10.32;4.78;;;10.40;99.90;;;;;;5052570;28;20497;-78
2021/10/09 05:03:43;;;;;;;72.57;7.75;;;10.30;99.90;;;;;;5054406;28;20116;-77
2021/10/09 05:06:09;;;;;;;12.25;3.88;;;10.20;99.90;;;;;;5054453;28;20025;-78
2021/10/09 05:08:35;;;;;;;12.70;3.60;;;10.40;99.90;;;;;;5054260;28;20366;-77
2021/10/09 05:11:02;;;;;;;13.30;3.97;;;10.60;99.90;;;;;;5052495;28;20131;-77
2021/10/09 05:13:28;;;;;;;13.98;3.90;;;10.70;99.90;;;;;;5054126;28;20017;-77
2021/10/09 05:15:53;;;;;;;11.15;3.33;;;10.70;99.90;;;;;;5054206;28;20032;-78
2021/10/09 05:18:19;;;;;;;9.48;3.72;;;10.50;99.90;;;;;;5054026;28;20420;-77
2021/10/09 05:20:45;;;;;;;10.10;4.03;;;10.50;99.90;;;;;;5053734;28;20510;-78
2021/10/09 05:23:11;;;;;;;13.40;5.25;;;10.50;99.90;;;;;;5053024;28;20032;-78
2021/10/09 05:25:37;;;;;;;10.57;4.00;;;10.50;99.90;;;;;;5053955;28;20021;-77
2021/10/09 05:28:14;;;;;;;9.88;4.13;;;10.50;99.90;;;;;;5053967;28;20087;-77
2021/10/09 05:30:46;;;;;;;10.55;4.57;;;10.20;99.90;;;;;;5053379;28;20120;-78
2021/10/09 05:35:41;;;;;;;45.80;7.57;;;9.80;99.90;;;;;;5053736;28;20024;-78
2021/10/09 05:38:08;;;;;;;20.17;5.03;;;9.60;99.90;;;;;;5053658;28;20108;-78
2021/10/09 05:40:34;;;;;;;9.63;4.15;;;9.70;99.90;;;;;;5053300;28;20025;-78
2021/10/09 05:42:59;;;;;;;38.58;6.35;;;10.00;99.90;;;;;;5034707;28;20049;-77
2021/10/09 05:45:25;;;;;;;12.43;4.10;;;10.10;99.90;;;;;;5053231;28;20100;-78
2021/10/09 05:47:52;;;;;;;8.48;3.47;;;10.30;99.90;;;;;;5053488;28;20083;-78
2021/10/09 05:50:21;;;;;;;21.88;4.60;;;10.10;99.90;;;;;;5053178;28;20028;-78
2021/10/09 05:55:44;;;;;;;15.75;4.03;;;10.00;99.90;;;;;;5042970;28;20075;-77
2021/10/09 05:58:20;;;;;;;41.20;5.45;;;9.70;99.90;;;;;;5053479;28;20074;-78
2021/10/09 06:46:59;;;;;;;65.88;8.75;;;10.30;99.90;;;;;;5052826;28;20111;-78
2021/10/09 07:00:29;;;;;;;35.45;8.02;;;10.90;99.90;;;;;;5052206;28;20036;-78
2021/10/09 07:02:55;;;;;;;17.95;6.85;;;11.40;99.90;;;;;;5052472;28;20401;-78
2021/10/09 07:05:21;;;;;;;21.42;6.55;;;11.80;99.90;;;;;;5051342;28;20123;-78
2021/10/09 07:07:52;;;;;;;21.73;6.25;;;12.20;99.90;;;;;;5052201;28;20473;-78
2021/10/09 07:10:18;;;;;;;29.63;7.05;;;12.70;99.90;;;;;;5050796;28;20131;-78
2021/10/09 07:12:43;;;;;;;;;;;13.00;99.90;;;;;;5052864;28;20104;-79
2021/10/09 07:15:11;;;;;;;122.70;35.33;;;13.70;99.90;;;;;;5052194;28;19905;-78
2021/10/09 07:17:37;;;;;;;59.95;26.85;;;14.30;99.90;;;;;;5052412;28;20104;-78
2021/10/09 07:20:06;;;;;;;45.65;21.30;;;14.70;99.90;;;;;;5051905;28;20025;-78
2021/10/09 07:22:32;;;;;;;38.45;18.73;;;15.00;99.90;;;;;;5051146;28;20511;-78
2021/10/09 07:24:58;;;;;;;27.30;13.38;;;15.90;99.90;;;;;;5051629;28;20449;-78
2021/10/09 07:27:25;;;;;;;17.70;7.75;;;16.40;98.20;;;;;;5052599;28;20120;-78
2021/10/09 07:29:51;;;;;;;20.25;8.10;;;17.00;97.40;;;;;;5051909;28;20115;-79
2021/10/09 07:32:17;;;;;;;15.13;6.50;;;17.30;96.10;;;;;;5050820;28;20493;-79
2021/10/09 07:34:43;;;;;;;16.88;6.63;;;17.40;95.40;;;;;;5052998;28;20028;-79
2021/10/09 07:37:08;;;;;;;13.90;6.05;;;18.00;94.90;;;;;;5053125;28;20017;-79
2021/10/09 07:39:36;;;;;;;32.38;7.00;;;18.10;93.50;;;;;;5053021;28;20036;-79
2021/10/09 07:42:03;;;;;;;13.70;5.55;;;19.10;92.40;;;;;;5033397;28;20042;-79
2021/10/09 07:44:29;;;;;;;25.80;6.40;;;19.80;90.70;;;;;;5051768;28;20032;-79
2021/10/09 07:46:55;;;;;;;11.55;5.90;;;20.30;89.50;;;;;;5055361;28;20705;-79
2021/10/09 07:49:21;;;;;;;10.73;5.50;;;20.80;87.30;;;;;;5056187;28;20021;-80
2021/10/09 07:51:47;;;;;;;18.38;5.80;;;21.30;84.90;;;;;;5054860;28;20108;-79
2021/10/09 07:54:13;;;;;;;11.50;5.78;;;21.10;84.00;;;;;;5056108;28;20100;-79
2021/10/09 07:56:39;;;;;;;23.13;6.43;;;20.80;85.40;;;;;;5054724;28;20537;-79
2021/10/09 07:59:06;;;;;;;36.55;8.15;;;20.70;86.00;;;;;;5055606;28;20082;-78
2021/10/09 08:01:32;;;;;;;12.98;6.50;;;21.00;85.80;;;;;;5055742;28;20025;-79
2021/10/09 08:03:58;;;;;;;11.45;5.60;;;21.50;84.10;;;;;;5055751;28;20028;-79
2021/10/09 08:06:24;;;;;;;14.20;5.50;;;21.70;83.40;;;;;;5055865;28;20029;-79
2021/10/09 08:08:51;;;;;;;11.88;5.28;;;22.30;82.20;;;;;;5054972;28;20039;-79
2021/10/09 08:11:20;;;;;;;13.20;5.70;;;22.90;80.50;;;;;;5055462;28;20029;-79
2021/10/09 08:13:46;;;;;;;14.25;6.10;;;23.10;78.50;;;;;;5055872;28;20424;-79
2021/10/09 08:16:12;;;;;;;13.02;6.85;;;22.80;79.00;;;;;;5054857;28;20071;-79
2021/10/09 08:18:38;;;;;;;11.32;6.43;;;22.70;79.10;;;;;;5054529;28;20115;-78
2021/10/09 08:21:05;;;;;;;18.77;7.55;;;23.00;79.90;;;;;;5053629;28;20493;-79
2021/10/09 08:23:48;;;;;;;15.52;7.43;;;23.50;77.70;;;;;;5055830;28;20025;-79
2021/10/09 08:39:38;;;;;;;11.55;7.53;;;25.70;71.70;;;;;;5055110;28;20053;-79
2021/10/09 08:42:05;;;;;;;11.48;7.00;;;25.90;70.80;;;;;;5054581;28;20032;-80
2021/10/09 08:44:31;;;;;;;11.75;6.95;;;26.10;70.60;;;;;;5036050;28;20559;-79
2021/10/09 08:46:57;;;;;;;24.05;7.55;;;26.70;70.10;;;;;;5053730;28;20025;-80
2021/10/09 08:49:24;;;;;;;12.18;6.95;;;27.40;67.80;;;;;;5053734;28;20036;-80
2021/10/09 08:51:51;;;;;;;14.48;8.13;;;28.20;66.20;;;;;;5054621;28;20481;-79
2021/10/09 08:54:17;;;;;;;18.08;8.45;;;29.10;64.70;;;;;;5055295;28;20017;-79
2021/10/09 08:56:47;;;;;;;15.38;8.95;;;30.40;62.10;;;;;;5053934;28;20027;-80
2021/10/09 09:02:16;;;;;;;16.45;8.52;;;32.40;56.70;;;;;;5055166;28;20358;-80
2021/10/09 09:27:05;;;;;;;13.90;7.60;;;37.00;45.10;;;;;;5053300;28;20043;-82
2021/10/09 09:37:41;;;;;;;12.45;6.95;;;38.30;44.00;;;;;;5053237;28;20484;-82
2021/10/09 09:40:15;;;;;;;19.20;8.73;;;38.90;43.50;;;;;;5054130;28;20539;-82
2021/10/09 09:42:52;;;;;;;10.18;8.30;;;39.40;42.30;;;;;;5052557;28;20022;-81
2021/10/09 09:45:23;;;;;;;10.48;7.18;;;39.60;42.10;;;;;;5032410;28;20132;-82
2021/10/09 09:47:52;;;;;;;12.80;7.78;;;40.00;41.90;;;;;;5052999;28;20021;-82
2021/10/09 09:50:18;;;;;;;12.15;8.38;;;39.70;41.80;;;;;;5053212;28;20572;-82
2021/10/09 09:52:45;;;;;;;11.15;8.25;;;40.00;41.70;;;;;;5051345;28;20111;-81
2021/10/09 09:55:13;;;;;;;11.73;9.75;;;41.20;41.10;;;;;;5052221;28;20029;-82
2021/10/09 09:57:40;;;;;;;11.07;8.98;;;40.90;40.10;;;;;;5053364;28;20021;-82
2021/10/09 10:00:09;;;;;;;17.67;10.50;;;41.70;40.50;;;;;;5053325;28;20028;-82
2021/10/09 10:02:55;;;;;;;11.30;10.07;;;42.70;39.10;;;;;;5052110;28;20488;-83
2021/10/09 10:05:24;;;;;;;18.52;10.70;;;42.20;38.90;;;;;;5053533;28;20052;-83
2021/10/09 10:07:51;;;;;;;15.10;12.43;;;43.10;39.30;;;;;;5052194;28;20029;-82
2021/10/09 10:10:18;;;;;;;16.90;13.77;;;44.90;38.70;;;;;;5052035;28;20024;-83
2021/10/09 10:12:47;;;;;;;14.38;12.93;;;45.20;37.50;;;;;;5051564;28;20374;-82
2021/10/09 10:15:13;;;;;;;33.58;14.70;;;44.00;37.90;;;;;;5052769;28;20036;-82
2021/10/09 10:17:44;;;;;;;23.77;12.20;;;44.20;37.90;;;;;;5052247;28;20030;-82
2021/10/09 10:20:16;;;;;;;12.40;11.13;;;43.40;37.90;;;;;;5053558;28;20021;-83
2021/10/09 10:22:42;;;;;;;14.80;12.05;;;42.90;38.30;;;;;;5051487;28;20017;-82
2021/10/09 10:25:17;;;;;;;13.32;11.93;;;42.50;38.70;;;;;;5053740;28;20031;-82
2021/10/09 10:27:44;;;;;;;15.00;12.73;;;41.90;38.30;;;;;;5052672;28;20108;-81
2021/10/09 10:30:16;;;;;;;15.68;11.70;;;43.30;38.60;;;;;;5049971;28;20041;-80
2021/10/09 10:32:47;;;;;;;14.98;13.40;;;43.90;38.10;;;;;;5027160;28;20032;-81
2021/10/09 10:35:34;;;;;;;15.60;14.10;;;43.60;37.60;;;;;;5051350;28;20096;-81
2021/10/09 10:38:09;;;;;;;18.75;15.00;;;43.90;37.70;;;;;;5051904;28;20029;-81
2021/10/09 10:41:02;;;;;;;14.07;12.75;;;42.40;37.00;;;;;;5052157;28;20033;-81
2021/10/09 10:43:32;;;;;;;12.40;11.10;;;40.80;38.30;;;;;;5052515;28;20059;-80
2021/10/09 10:46:00;;;;;;;19.85;11.10;;;39.50;39.10;;;;;;5050257;28;20485;-81
2021/10/09 10:48:53;;;;;;;13.52;12.15;;;39.80;40.10;;;;;;5050944;28;20029;-81
2021/10/09 10:57:02;;;;;;;16.02;11.85;;;39.50;40.30;;;;;;5050705;28;20037;-81
2021/10/09 10:59:57;;;;;;;11.35;10.25;;;40.00;40.20;;;;;;5049709;28;20052;-81
2021/10/09 11:02:25;;;;;;;17.35;11.32;;;40.40;39.40;;;;;;5051082;28;20021;-81
2021/10/09 11:05:00;;;;;;;13.55;12.25;;;41.90;39.00;;;;;;5052400;28;20465;-81
2021/10/09 11:07:29;;;;;;;13.20;12.00;;;42.50;38.30;;;;;;5051073;28;20032;-81
2021/10/09 11:10:05;;;;;;;12.68;11.10;;;43.20;37.90;;;;;;5051344;28;20029;-81
2021/10/09 11:12:35;;;;;;;12.20;9.90;;;43.30;37.30;;;;;;5052210;28;20170;-81
2021/10/09 11:15:01;;;;;;;11.77;10.10;;;43.20;37.30;;;;;;5050147;28;20029;-81
2021/10/09 11:17:33;;;;;;;10.73;9.55;;;43.60;37.00;;;;;;5052115;28;20036;-80
2021/10/09 11:19:58;;;;;;;12.05;10.82;;;43.70;36.90;;;;;;5052573;28;20028;-81
2021/10/09 11:22:36;;;;;;;18.63;11.15;;;44.80;36.50;;;;;;5053161;28;20037;-80
2021/10/09 11:25:01;;;;;;;11.02;9.93;;;44.20;36.30;;;;;;5054818;28;20029;-80
2021/10/09 11:27:35;;;;;;;13.48;10.40;;;45.00;36.20;;;;;;5056240;28;20087;-80
2021/10/09 11:30:10;;;;;;;12.13;10.93;;;45.20;35.80;;;;;;5055726;28;20039;-81
2021/10/09 11:32:38;;;;;;;10.90;9.55;;;44.60;35.40;;;;;;5054715;28;20037;-80
2021/10/09 11:35:06;;;;;;;11.27;8.55;;;43.80;35.80;;;;;;5037055;28;20501;-80
2021/10/09 11:37:33;;;;;;;12.52;8.80;;;43.60;36.50;;;;;;5054300;28;20071;-80
2021/10/09 11:40:03;;;;;;;13.85;9.07;;;44.20;36.70;;;;;;5054550;28;20029;-80
2021/10/09 11:42:32;;;;;;;18.33;8.80;;;43.80;35.90;;;;;;5054730;28;20108;-81
2021/10/09 11:53:42;;;;;;;16.05;9.20;;;45.50;35.50;;;;;;5055544;28;20040;-80
2021/10/09 11:56:11;;;;;;;11.40;9.80;;;45.10;35.80;;;;;;5054132;28;20025;-80
2021/10/09 11:58:47;;;;;;;15.23;8.90;;;46.20;35.90;;;;;;5055727;28;20396;-80
2021/10/09 12:01:36;;;;;;;10.48;9.00;;;45.10;35.30;;;;;;5054246;28;20024;-81
2021/10/09 12:04:22;;;;;;;13.05;10.65;;;46.50;35.40;;;;;;5055207;28;20021;-80
2021/10/09 12:07:09;;;;;;;10.25;9.15;;;46.70;34.50;;;;;;5054038;28;20024;-81
2021/10/09 12:09:42;;;;;;;13.25;11.95;;;47.00;35.20;;;;;;5053944;28;20037;-81
2021/10/09 12:12:19;;;;;;;14.15;10.60;;;47.10;34.10;;;;;;5055475;28;20068;-81
2021/10/09 12:14:50;;;;;;;13.77;11.18;;;46.10;33.70;;;;;;5054965;28;20064;-81
2021/10/09 12:17:17;;;;;;;13.35;11.95;;;47.90;34.10;;;;;;5053707;28;20092;-80
2021/10/09 12:19:45;;;;;;;12.30;11.10;;;47.50;33.60;;;;;;5054113;28;20033;-81
2021/10/09 12:22:13;;;;;;;17.13;14.48;;;46.80;34.00;;;;;;5053684;28;20046;-80
2021/10/09 12:24:48;;;;;;;21.40;15.52;;;48.00;33.90;;;;;;5054768;28;20025;-81
2021/10/09 12:27:17;;;;;;;15.00;13.70;;;48.90;33.70;;;;;;5053546;28;20021;-81
2021/10/09 12:30:01;;;;;;;15.93;14.38;;;48.10;34.00;;;;;;5053912;28;20389;-81
2021/10/09 12:32:28;;;;;;;17.95;16.35;;;48.20;34.00;;;;;;5054504;28;20044;-81
2021/10/09 12:35:26;;;;;;;17.45;15.95;;;49.80;33.50;;;;;;5035778;28;20033;-81
2021/10/09 12:37:57;;;;;;;22.52;14.38;;;48.40;33.10;;;;;;5053475;28;20033;-81
2021/10/09 12:40:25;;;;;;;28.13;16.15;;;47.30;33.50;;;;;;5054907;28;20366;-81
2021/10/09 12:42:58;;;;;;;17.55;15.95;;;48.80;33.20;;;;;;5053627;28;20059;-81
2021/10/09 12:45:26;;;;;;;17.10;15.63;;;49.20;34.00;;;;;;5053046;28;20024;-80
2021/10/09 12:47:52;;;;;;;18.38;16.88;;;49.40;33.70;;;;;;5053482;28;20096;-80
2021/10/09 12:50:18;;;;;;;18.88;17.33;;;49.70;33.60;;;;;;5052567;28;20032;-81
2021/10/09 12:52:45;;;;;;;23.15;21.25;;;50.00;33.40;;;;;;5053435;28;20396;-81
2021/10/09 12:55:14;;;;;;;28.40;16.48;;;50.40;32.80;;;;;;5054219;28;20021;-81
2021/10/09 12:57:54;;;;;;;24.45;15.50;;;47.80;33.70;;;;;;5053356;28;20489;-81
2021/10/09 13:00:21;;;;;;;14.48;13.18;;;47.20;33.80;;;;;;5054509;28;20040;-83
2021/10/09 13:02:47;;;;;;;17.45;14.80;;;47.00;34.60;;;;;;5054209;28;20025;-83
2021/10/09 13:05:13;;;;;;;19.80;17.95;;;47.80;34.10;;;;;;5053975;28;20600;-83
2021/10/09 13:07:39;;;;;;;16.10;14.70;;;47.30;33.90;;;;;;5054354;28;20103;-81
2021/10/09 13:10:06;;;;;;;15.45;13.98;;;46.40;34.20;;;;;;5054263;28;20102;-81
2021/10/09 13:12:32;;;;;;;52.55;14.07;;;45.90;34.80;;;;;;5054406;28;20021;-81
2021/10/09 13:14:58;;;;;;;10.95;9.77;;;43.40;35.50;;;;;;5052510;28;20047;-81
2021/10/09 13:17:24;;;;;;;14.95;13.32;;;44.30;36.50;;;;;;5054156;28;20481;-81
2021/10/09 13:19:49;;;;;;;14.63;12.77;;;45.90;35.30;;;;;;5054161;28;20017;-82
2021/10/09 13:22:15;;;;;;;14.13;10.45;;;47.20;34.60;;;;;;5054074;28;20025;-81
2021/10/09 13:24:41;;;;;;;12.50;8.90;;;44.80;35.20;;;;;;5053781;28;20025;-81
2021/10/09 13:27:07;;;;;;;11.20;8.70;;;43.80;36.60;;;;;;5053896;28;20020;-81
2021/10/09 13:29:32;;;;;;;11.20;8.45;;;44.50;35.60;;;;;;5054018;28;20485;-81
2021/10/09 13:31:58;;;;;;;13.05;8.85;;;45.60;35.70;;;;;;5053631;28;20128;-81
2021/10/09 13:34:24;;;;;;;12.07;8.60;;;46.60;35.20;;;;;;5032849;28;20430;-80
2021/10/09 13:36:50;;;;;;;9.55;7.70;;;46.60;34.80;;;;;;5052148;28;20128;-81
2021/10/09 13:39:16;;;;;;;11.55;7.88;;;47.10;34.70;;;;;;5053701;28;20056;-82
2021/10/09 13:41:43;;;;;;;19.55;8.38;;;47.00;34.30;;;;;;5053980;28;20537;-80
2021/10/09 13:44:09;;;;;;;11.30;6.90;;;47.30;33.30;;;;;;5052579;28;20112;-81
2021/10/09 13:46:37;;;;;;;9.85;7.20;;;46.80;33.80;;;;;;5052286;28;20025;-80
2021/10/09 13:49:06;;;;;;;10.43;6.68;;;47.10;33.70;;;;;;5052373;28;20032;-80
2021/10/09 13:51:32;;;;;;;16.42;7.05;;;47.00;33.90;;;;;;5053302;28;20108;-80
2021/10/09 13:53:58;;;;;;;9.73;6.68;;;48.10;34.30;;;;;;5053222;28;20021;-80
2021/10/09 13:56:24;;;;;;;11.38;6.72;;;47.80;33.90;;;;;;5052138;28;20033;-80
2021/10/09 13:58:49;;;;;;;9.43;6.60;;;46.40;34.10;;;;;;5052063;28;20025;-80
2021/10/09 14:01:15;;;;;;;9.30;5.70;;;46.80;34.20;;;;;;5051991;28;20040;-80
2021/10/09 14:03:43;;;;;;;11.00;6.60;;;45.70;34.60;;;;;;5051711;28;20071;-80
2021/10/09 14:06:08;;;;;;;9.63;6.40;;;46.30;34.50;;;;;;5053295;28;20053;-80
2021/10/09 14:08:34;;;;;;;9.98;5.85;;;46.00;34.30;;;;;;5053270;28;20159;-80
2021/10/09 14:11:01;;;;;;;10.02;5.75;;;46.10;34.60;;;;;;5053274;28;20025;-80
2021/10/09 14:13:27;;;;;;;10.45;5.38;;;45.80;34.80;;;;;;5051616;28;20489;-80
2021/10/09 14:15:54;;;;;;;8.77;4.72;;;44.70;35.50;;;;;;5052983;28;20025;-80
2021/10/09 14:18:20;;;;;;;8.73;5.20;;;43.30;35.70;;;;;;5053152;28;20021;-80
2021/10/09 14:20:51;;;;;;;8.55;5.13;;;44.10;35.90;;;;;;5052920;28;20073;-79
2021/10/09 14:23:17;;;;;;;14.77;5.30;;;43.90;35.70;;;;;;5053152;28;20028;-80
2021/10/09 14:25:43;;;;;;;19.55;6.63;;;43.20;36.20;;;;;;5051237;28;20035;-80
2021/10/09 14:28:10;;;;;;;12.77;5.75;;;43.30;35.80;;;;;;5051722;28;20388;-80
2021/10/09 14:30:39;;;;;;;11.00;5.68;;;42.70;36.00;;;;;;5052764;28;20053;-80
2021/10/09 14:33:06;;;;;;;9.82;5.05;;;42.30;36.20;;;;;;5051683;28;20493;-79
2021/10/09 14:35:32;;;;;;;14.75;5.78;;;42.20;36.70;;;;;;5028921;28;20513;-80
2021/10/09 14:37:58;;;;;;;10.27;4.97;;;42.60;36.70;;;;;;5051373;28;20485;-79
2021/10/09 14:40:25;;;;;;;10.25;5.00;;;42.90;36.40;;;;;;5051478;28;20112;-79
2021/10/09 14:42:51;;;;;;;8.60;5.07;;;41.40;37.10;;;;;;5051496;28;20113;-80
2021/10/09 14:45:18;;;;;;;12.38;5.70;;;41.90;36.60;;;;;;5051284;28;20116;-79
2021/10/09 14:50:37;;;;;;;11.63;4.75;;;40.20;37.80;;;;;;5052863;28;20548;-79
2021/10/09 15:02:16;;;;;;;10.52;4.13;;;39.50;37.40;;;;;;5034651;28;20021;-81
2021/10/09 15:18:22;;;;;;;7.75;4.63;;;38.20;37.70;;;;;;5056140;28;20036;-81
2021/10/09 15:21:00;;;;;;;11.55;6.38;;;38.10;38.40;;;;;;5055008;28;20195;-81
2021/10/09 15:23:26;;;;;;;11.25;6.68;;;38.30;38.40;;;;;;5056575;28;20025;-81
2021/10/09 15:25:52;;;;;;;20.50;7.13;;;38.20;38.40;;;;;;5055935;28;20029;-81
2021/10/09 15:28:18;;;;;;;10.57;7.50;;;37.50;38.70;;;;;;5056240;28;20071;-82
2021/10/09 15:30:45;;;;;;;15.85;7.63;;;37.10;39.90;;;;;;5056060;28;20053;-81
2021/10/09 15:33:11;;;;;;;16.80;9.07;;;37.50;39.30;;;;;;5056199;28;20025;-81